Time;durP1;ratioP1;P1;durP2;ratioP2;P2;SDS_P1;SDS_P2;PMS_P1;PMS_P2;Temp;Humidity;BMP_temperature;BMP_pressure;BME280_temperature;BME280_humidity;BME280_pressure;Samples;Min_cycle;Max_cycle;Signal;HPM_P1;HPM_P2
2021/06/17 00:00:04;;;;;;;13.40;6.75;;;23.30;66.60;;;;;;5003431;28;20107;-80
2021/06/17 00:02:30;;;;;;;9.00;6.90;;;23.20;66.70;;;;;;5016509;28;20040;-80
2021/06/17 00:04:56;;;;;;;7.50;6.80;;;23.20;67.00;;;;;;5042261;28;20449;-80
2021/06/17 00:07:21;;;;;;;11.30;6.78;;;23.10;67.20;;;;;;5035381;28;20060;-80
2021/06/17 00:09:47;;;;;;;10.65;7.43;;;23.00;67.40;;;;;;5013934;28;20112;-81
2021/06/17 00:12:13;;;;;;;10.75;7.00;;;22.90;67.60;;;;;;5018023;28;20033;-79
2021/06/17 00:14:39;;;;;;;8.93;6.53;;;22.90;67.50;;;;;;5015571;28;20543;-79
2021/06/17 00:17:05;;;;;;;9.50;7.63;;;22.90;67.40;;;;;;5031565;28;20199;-80
2021/06/17 00:19:32;;;;;;;11.75;7.18;;;23.00;67.30;;;;;;5031291;28;20025;-79
2021/06/17 00:21:58;;;;;;;10.73;7.20;;;23.10;67.20;;;;;;5031293;28;20033;-80
2021/06/17 00:24:24;;;;;;;8.95;6.43;;;23.10;67.10;;;;;;5029878;28;20026;-80
2021/06/17 00:26:50;;;;;;;7.82;6.63;;;23.10;67.10;;;;;;5017746;28;20053;-81
2021/06/17 00:29:17;;;;;;;10.50;7.35;;;23.10;67.10;;;;;;5034754;28;20031;-80
2021/06/17 00:31:43;;;;;;;8.95;6.93;;;23.10;67.10;;;;;;5035320;28;20017;-80
2021/06/17 00:34:09;;;;;;;7.43;6.68;;;23.10;67.00;;;;;;5052130;28;20029;-80
2021/06/17 00:36:39;;;;;;;9.70;7.18;;;23.10;66.70;;;;;;5026293;28;20029;-80
2021/06/17 00:39:07;;;;;;;11.07;7.10;;;23.00;66.70;;;;;;5030836;28;20038;-79
2021/06/17 00:41:33;;;;;;;8.60;7.13;;;22.90;67.30;;;;;;5015314;28;20017;-79
2021/06/17 00:43:59;;;;;;;8.60;7.22;;;22.90;67.00;;;;;;5011938;28;20086;-80
2021/06/17 00:46:25;;;;;;;10.73;6.93;;;22.90;67.10;;;;;;5029809;28;20033;-79
2021/06/17 00:48:51;;;;;;;8.40;6.70;;;22.90;67.20;;;;;;5034214;28;20032;-82
2021/06/17 00:51:17;;;;;;;8.85;7.38;;;22.90;67.20;;;;;;5051224;28;20104;-79
2021/06/17 00:53:43;;;;;;;8.45;7.03;;;22.80;67.30;;;;;;5018556;28;20108;-80
2021/06/17 00:56:09;;;;;;;8.88;7.32;;;22.80;67.30;;;;;;5033507;28;20693;-80
2021/06/17 00:58:35;;;;;;;9.25;7.28;;;22.80;67.20;;;;;;5033304;28;20441;-80
2021/06/17 01:01:01;;;;;;;12.57;8.55;;;22.60;67.40;;;;;;5021144;28;20091;-78
2021/06/17 01:03:27;;;;;;;8.38;7.43;;;22.60;67.60;;;;;;4998616;28;20425;-79
2021/06/17 01:05:53;;;;;;;10.43;8.48;;;22.50;67.80;;;;;;5009378;28;20033;-83
2021/06/17 01:08:43;;;;;;;10.18;8.52;;;22.40;68.00;;;;;;5015806;28;20032;-78
2021/06/17 01:11:42;;;;;;;10.10;8.00;;;22.30;68.30;;;;;;5044968;28;20071;-79
2021/06/17 01:14:08;;;;;;;10.38;7.88;;;22.20;68.70;;;;;;5046811;28;20029;-80
2021/06/17 01:16:36;;;;;;;11.00;8.95;;;22.10;68.70;;;;;;5032248;28;20032;-79
2021/06/17 01:19:25;;;;;;;9.52;8.63;;;22.20;68.80;;;;;;5013829;28;20109;-80
2021/06/17 01:22:14;;;;;;;9.38;8.38;;;22.10;68.80;;;;;;5014177;28;20033;-80
2021/06/17 01:25:05;;;;;;;10.20;8.77;;;22.10;68.90;;;;;;5014697;28;20033;-79
2021/06/17 01:28:04;;;;;;;11.90;8.73;;;22.10;68.90;;;;;;5018881;28;20164;-79
2021/06/17 01:30:31;;;;;;;10.45;9.25;;;22.10;69.00;;;;;;5040739;28;20029;-79
2021/06/17 01:33:00;;;;;;;9.70;8.73;;;22.10;69.10;;;;;;5047679;28;20040;-82
2021/06/17 01:35:28;;;;;;;9.25;8.35;;;22.10;69.10;;;;;;5039143;28;20029;-78
2021/06/17 01:38:00;;;;;;;10.13;8.52;;;22.10;69.10;;;;;;5046449;28;20095;-79
2021/06/17 01:40:28;;;;;;;9.65;8.75;;;22.10;69.10;;;;;;5017814;28;20036;-78
2021/06/17 01:42:55;;;;;;;9.98;7.97;;;22.10;69.10;;;;;;5033360;28;20024;-78
2021/06/17 01:45:23;;;;;;;9.18;8.27;;;22.10;69.10;;;;;;5027795;28;20033;-79
2021/06/17 01:47:51;;;;;;;9.48;8.55;;;22.10;69.10;;;;;;5033902;28;20082;-78
2021/06/17 01:50:19;;;;;;;9.63;8.07;;;22.10;69.20;;;;;;5050168;28;20048;-78
2021/06/17 01:52:46;;;;;;;9.65;8.75;;;22.10;69.30;;;;;;5034176;28;20029;-79
2021/06/17 01:55:14;;;;;;;9.93;8.88;;;22.10;69.40;;;;;;5021750;28;20124;-79
2021/06/17 01:57:41;;;;;;;11.30;9.95;;;22.00;69.40;;;;;;5032854;28;20525;-79
2021/06/17 02:00:07;;;;;;;12.27;10.90;;;22.00;69.60;;;;;;5040838;28;20359;-79
2021/06/17 02:02:34;;;;;;;10.77;9.68;;;21.90;69.90;;;;;;5013800;28;20071;-78
2021/06/17 02:05:01;;;;;;;10.10;9.10;;;21.80;70.00;;;;;;5012978;28;20037;-82
2021/06/17 02:07:27;;;;;;;11.00;10.02;;;21.80;70.00;;;;;;5016724;28;20090;-79
2021/06/17 02:09:54;;;;;;;12.77;9.98;;;21.80;70.00;;;;;;5028520;28;20040;-79
2021/06/17 02:12:20;;;;;;;10.23;9.27;;;21.90;70.10;;;;;;5026597;28;20685;-79
2021/06/17 02:14:48;;;;;;;10.63;9.60;;;21.80;70.20;;;;;;5052087;28;20079;-78
2021/06/17 02:17:16;;;;;;;10.68;9.70;;;21.70;70.40;;;;;;5016740;28;20087;-79
2021/06/17 02:19:43;;;;;;;10.73;9.73;;;21.70;70.60;;;;;;5037440;28;20037;-79
2021/06/17 02:22:11;;;;;;;10.93;9.77;;;21.70;70.70;;;;;;5034394;28;20021;-79
2021/06/17 02:24:39;;;;;;;12.50;10.15;;;21.70;70.80;;;;;;5037225;28;20052;-80
2021/06/17 02:27:18;;;;;;;11.65;10.55;;;21.70;70.80;;;;;;5014060;28;20498;-81
2021/06/17 02:29:48;;;;;;;10.27;9.27;;;21.70;70.80;;;;;;5034243;28;20052;-80
2021/06/17 02:32:18;;;;;;;11.63;10.38;;;21.70;70.90;;;;;;5047314;28;20121;-80
2021/06/17 02:34:47;;;;;;;10.68;9.60;;;21.70;71.00;;;;;;5023796;28;20060;-80
2021/06/17 02:37:15;;;;;;;9.68;8.77;;;21.70;71.10;;;;;;5042157;28;20049;-80
2021/06/17 02:39:44;;;;;;;10.88;9.05;;;21.70;71.10;;;;;;5038122;28;20025;-80
2021/06/17 02:42:12;;;;;;;10.52;9.52;;;21.70;71.00;;;;;;5011385;28;20041;-80
2021/06/17 02:44:38;;;;;;;11.15;9.88;;;21.80;71.00;;;;;;5017184;28;20032;-80
2021/06/17 02:47:04;;;;;;;11.98;9.90;;;21.80;71.10;;;;;;5016348;28;20033;-80
2021/06/17 02:49:29;;;;;;;10.80;9.80;;;21.70;71.20;;;;;;5000647;28;20034;-79
2021/06/17 02:51:55;;;;;;;11.65;10.48;;;21.70;71.20;;;;;;5017939;28;20474;-79
2021/06/17 02:54:21;;;;;;;12.30;11.18;;;21.60;71.50;;;;;;5035404;28;20033;-78
2021/06/17 02:56:54;;;;;;;11.70;10.60;;;21.50;71.80;;;;;;5036119;28;20489;-79
2021/06/17 02:59:45;;;;;;;13.55;11.90;;;21.40;72.20;;;;;;5018618;28;20025;-79
2021/06/17 03:02:15;;;;;;;14.20;11.70;;;21.20;72.60;;;;;;5018342;28;20117;-81
2021/06/17 03:04:52;;;;;;;11.50;10.50;;;21.10;73.00;;;;;;5049456;28;20034;-79
2021/06/17 03:07:23;;;;;;;12.18;10.98;;;21.20;73.00;;;;;;5046106;28;20025;-79
2021/06/17 03:09:56;;;;;;;13.15;10.63;;;21.30;72.90;;;;;;5048930;28;20377;-78
2021/06/17 03:12:25;;;;;;;13.63;11.77;;;21.20;72.90;;;;;;5026604;28;20381;-79
2021/06/17 03:14:52;;;;;;;12.75;11.50;;;21.10;73.30;;;;;;5028212;28;20464;-79
2021/06/17 03:17:20;;;;;;;12.32;11.05;;;21.00;73.70;;;;;;5036704;28;20025;-79
2021/06/17 03:19:50;;;;;;;12.70;11.43;;;21.00;73.80;;;;;;5030129;28;20025;-78
2021/06/17 03:22:16;;;;;;;12.93;11.13;;;21.00;73.80;;;;;;5016034;28;20021;-80
2021/06/17 03:24:45;;;;;;;13.30;12.07;;;21.00;73.80;;;;;;5023649;28;20017;-79
2021/06/17 03:27:11;;;;;;;12.50;11.30;;;21.00;73.80;;;;;;5041689;28;20049;-83
2021/06/17 03:29:45;;;;;;;18.10;12.65;;;21.00;73.90;;;;;;5017230;28;20107;-79
2021/06/17 03:32:12;;;;;;;13.90;12.50;;;21.00;74.00;;;;;;5016460;28;20030;-82
2021/06/17 03:34:41;;;;;;;14.07;12.38;;;20.90;74.20;;;;;;4987246;28;20087;-79
2021/06/17 03:37:08;;;;;;;16.73;13.00;;;20.90;74.30;;;;;;5044234;28;20029;-79
2021/06/17 03:39:34;;;;;;;15.75;12.88;;;20.90;74.60;;;;;;5035160;28;20025;-79
2021/06/17 03:42:02;;;;;;;15.68;13.73;;;20.80;74.80;;;;;;5017771;28;20113;-79
2021/06/17 03:44:29;;;;;;;15.75;13.27;;;20.90;75.10;;;;;;5015095;28;20025;-79
2021/06/17 03:46:57;;;;;;;14.90;13.30;;;20.90;75.10;;;;;;5016323;28;20029;-79
2021/06/17 03:49:24;;;;;;;18.88;12.90;;;21.00;75.10;;;;;;4999517;28;20036;-79
2021/06/17 03:51:50;;;;;;;13.90;12.20;;;21.20;74.90;;;;;;5032697;28;20033;-79
2021/06/17 03:54:25;;;;;;;17.00;12.85;;;21.40;74.70;;;;;;5033755;28;20516;-82
2021/06/17 03:56:59;;;;;;;18.30;12.10;;;21.50;74.40;;;;;;5035337;28;20082;-79
2021/06/17 03:59:28;;;;;;;16.23;11.00;;;21.90;73.50;;;;;;5051843;28;20108;-80
2021/06/17 04:01:55;;;;;;;15.60;11.32;;;22.40;72.40;;;;;;5044778;28;20032;-80
2021/06/17 04:04:20;;;;;;;12.88;10.30;;;22.70;71.30;;;;;;5033621;28;20041;-80
2021/06/17 04:06:52;;;;;;;14.00;10.05;;;22.90;70.40;;;;;;5028548;28;20036;-80
2021/06/17 04:09:26;;;;;;;16.08;10.13;;;23.00;69.90;;;;;;5032678;28;20040;-82
2021/06/17 04:11:56;;;;;;;12.48;10.30;;;23.00;69.60;;;;;;5031204;28;20028;-80
2021/06/17 04:14:23;;;;;;;13.15;9.63;;;23.00;69.50;;;;;;5020713;28;20022;-80
2021/06/17 04:16:51;;;;;;;13.35;9.35;;;22.90;69.30;;;;;;5015635;28;20529;-80
2021/06/17 04:19:21;;;;;;;13.40;9.05;;;22.90;69.30;;;;;;5015244;28;20370;-81
2021/06/17 04:21:51;;;;;;;14.52;8.88;;;23.00;68.70;;;;;;5015656;28;20045;-82
2021/06/17 04:24:19;;;;;;;14.05;7.88;;;23.00;68.50;;;;;;5015114;28;20022;-83
2021/06/17 04:26:45;;;;;;;10.73;8.23;;;22.90;68.50;;;;;;5014764;28;20041;-81
2021/06/17 04:29:16;;;;;;;9.60;8.15;;;22.80;68.70;;;;;;5049810;28;20158;-80
2021/06/17 04:31:44;;;;;;;12.00;7.43;;;22.70;68.30;;;;;;5018161;28;20067;-81
2021/06/17 04:34:11;;;;;;;9.57;7.15;;;22.70;68.30;;;;;;5051782;28;20072;-81
2021/06/17 04:36:38;;;;;;;8.57;6.95;;;22.80;68.10;;;;;;5012493;28;20029;-81
2021/06/17 04:39:05;;;;;;;8.68;6.78;;;22.80;67.80;;;;;;4998902;28;20025;-81
2021/06/17 04:41:30;;;;;;;9.27;6.40;;;23.20;67.30;;;;;;5018371;28;20033;-81
2021/06/17 04:43:59;;;;;;;8.82;6.70;;;24.00;65.60;;;;;;5018184;28;20040;-82
2021/06/17 04:46:25;;;;;;;9.60;6.18;;;24.10;64.80;;;;;;5024537;28;20029;-82
2021/06/17 04:48:52;;;;;;;6.60;5.65;;;24.00;64.80;;;;;;5031727;28;20031;-82
2021/06/17 04:51:18;;;;;;;9.45;6.35;;;23.90;65.10;;;;;;5034827;28;20446;-81
2021/06/17 04:53:44;;;;;;;10.07;6.15;;;23.80;65.20;;;;;;5033860;28;20110;-81
2021/06/17 04:56:09;;;;;;;8.43;5.43;;;23.70;65.30;;;;;;5001027;28;20040;-81
2021/06/17 04:58:36;;;;;;;8.90;5.57;;;23.60;65.30;;;;;;5014165;28;20146;-81
2021/06/17 05:01:05;;;;;;;10.60;6.40;;;23.50;65.50;;;;;;5034621;28;20552;-81
2021/06/17 05:03:31;;;;;;;9.38;5.78;;;23.50;65.60;;;;;;5015830;28;20048;-82
2021/06/17 05:05:59;;;;;;;8.88;5.68;;;23.50;65.60;;;;;;5038709;28;20033;-81
2021/06/17 05:10:54;;;;;;;12.10;6.50;;;23.40;65.60;;;;;;5045283;28;20048;-81
2021/06/17 05:13:28;;;;;;;8.90;5.57;;;23.30;65.50;;;;;;5052631;28;20021;-82
2021/06/17 05:15:56;;;;;;;6.78;5.82;;;23.30;65.50;;;;;;5014096;28;20029;-81
2021/06/17 05:18:23;;;;;;;8.38;5.30;;;23.30;65.70;;;;;;5031232;28;20445;-81
2021/06/17 05:20:52;;;;;;;7.80;5.03;;;23.30;65.90;;;;;;5026835;28;20038;-80
2021/06/17 05:23:21;;;;;;;9.80;5.70;;;23.40;65.70;;;;;;5025969;28;20028;-81
2021/06/17 05:25:51;;;;;;;9.32;6.13;;;23.30;65.50;;;;;;5041126;28;20021;-82
2021/06/17 05:28:20;;;;;;;17.02;5.78;;;23.30;65.40;;;;;;4997666;28;20056;-81
2021/06/17 05:30:46;;;;;;;9.48;5.68;;;23.40;65.40;;;;;;5017696;28;20053;-81
2021/06/17 05:33:12;;;;;;;8.00;5.55;;;23.40;65.40;;;;;;5031614;28;20127;-81
2021/06/17 05:35:39;;;;;;;8.25;5.65;;;23.40;65.90;;;;;;5013518;28;20121;-80
2021/06/17 05:38:05;;;;;;;14.35;6.15;;;23.50;65.30;;;;;;5030861;28;20026;-81
2021/06/17 05:40:31;;;;;;;9.48;5.18;;;23.60;65.00;;;;;;5017789;28;20547;-82
2021/06/17 05:42:57;;;;;;;8.27;5.15;;;23.70;64.90;;;;;;5030836;28;20025;-79
2021/06/17 05:45:23;;;;;;;11.95;5.30;;;23.80;64.80;;;;;;5025218;28;20117;-80
2021/06/17 05:47:49;;;;;;;10.55;5.53;;;23.90;64.40;;;;;;5020828;28;20093;-79
2021/06/17 05:50:17;;;;;;;12.32;6.20;;;23.90;64.40;;;;;;5014676;28;20037;-80
2021/06/17 05:52:43;;;;;;;15.18;6.50;;;23.90;64.40;;;;;;5030270;28;20030;-80
2021/06/17 05:55:12;;;;;;;17.33;5.93;;;24.00;64.40;;;;;;5010127;28;20041;-80
2021/06/17 05:57:38;;;;;;;12.63;5.13;;;24.10;64.20;;;;;;5014251;28;20029;-80
2021/06/17 06:00:06;;;;;;;12.93;5.80;;;24.30;63.80;;;;;;5014863;28;20037;-80
2021/06/17 06:02:31;;;;;;;14.60;5.95;;;24.40;63.40;;;;;;4997706;28;20026;-83
2021/06/17 06:04:57;;;;;;;10.38;5.93;;;24.60;63.00;;;;;;5024023;28;20124;-81
2021/06/17 06:07:23;;;;;;;9.10;5.22;;;24.60;62.70;;;;;;5015365;28;20469;-81
2021/06/17 06:09:48;;;;;;;10.02;5.38;;;24.70;62.50;;;;;;5037821;28;20040;-82
2021/06/17 06:12:14;;;;;;;9.43;5.50;;;24.70;62.40;;;;;;5033780;28;20044;-81
2021/06/17 06:14:40;;;;;;;10.65;5.43;;;25.10;62.20;;;;;;5033254;28;20025;-82
2021/06/17 06:17:06;;;;;;;12.68;4.97;;;25.50;61.20;;;;;;5042370;28;20044;-80
2021/06/17 06:19:34;;;;;;;12.55;5.63;;;25.70;60.50;;;;;;5037998;28;20029;-81
2021/06/17 06:22:00;;;;;;;13.00;5.22;;;25.90;60.00;;;;;;5025821;28;20087;-80
2021/06/17 06:24:26;;;;;;;6.82;4.80;;;26.00;59.70;;;;;;5032067;28;20465;-80
2021/06/17 06:26:56;;;;;;;12.13;4.45;;;26.10;59.60;;;;;;5043343;28;20400;-80
2021/06/17 06:29:22;;;;;;;9.63;3.72;;;26.20;58.80;;;;;;5038765;28;20397;-80
2021/06/17 06:31:48;;;;;;;10.75;4.20;;;26.40;58.40;;;;;;5021441;28;20032;-81
2021/06/17 06:34:13;;;;;;;7.38;3.20;;;26.60;57.80;;;;;;5034093;28;20034;-80
2021/06/17 06:36:39;;;;;;;5.63;3.65;;;26.70;57.00;;;;;;5040955;28;20127;-84
2021/06/17 06:39:05;;;;;;;7.50;3.50;;;27.00;56.50;;;;;;5017576;28;20144;-82
2021/06/17 06:41:30;;;;;;;9.65;3.83;;;28.20;54.70;;;;;;5037633;28;20457;-79
2021/06/17 06:43:56;;;;;;;7.53;3.10;;;29.60;51.30;;;;;;5020369;28;20520;-81
2021/06/17 06:46:22;;;;;;;6.70;2.80;;;30.60;48.70;;;;;;5000410;28;20478;-79
2021/06/17 06:48:47;;;;;;;9.55;2.95;;;31.20;47.70;;;;;;5017267;28;20037;-79
2021/06/17 06:51:13;;;;;;;6.78;2.80;;;31.10;46.90;;;;;;5047949;28;20041;-82
2021/06/17 06:53:39;;;;;;;7.82;2.83;;;30.90;46.40;;;;;;5015600;28;20033;-84
2021/06/17 06:56:05;;;;;;;7.38;2.45;;;30.40;47.00;;;;;;5044453;28;20385;-82
2021/06/17 06:58:30;;;;;;;9.40;2.75;;;29.90;48.20;;;;;;5016833;28;20385;-81
2021/06/17 07:00:56;;;;;;;8.00;2.80;;;29.80;48.10;;;;;;5032609;28;20033;-80
2021/06/17 07:03:22;;;;;;;6.25;2.55;;;29.90;48.10;;;;;;5014070;28;20037;-83
2021/06/17 07:05:47;;;;;;;5.63;2.15;;;29.60;48.50;;;;;;5026157;28;20026;-80
2021/06/17 07:08:14;;;;;;;5.93;2.80;;;29.20;49.40;;;;;;5023450;28;20056;-81
2021/06/17 07:10:45;;;;;;;5.22;2.53;;;28.90;49.90;;;;;;5026379;28;20056;-82
2021/06/17 07:13:11;;;;;;;7.75;2.55;;;28.70;50.80;;;;;;5029330;28;20023;-80
2021/06/17 07:15:37;;;;;;;3.92;2.38;;;28.60;51.60;;;;;;5036281;28;20031;-81
2021/06/17 07:18:03;;;;;;;5.32;2.40;;;28.60;52.40;;;;;;5035909;28;20197;-80
2021/06/17 07:20:29;;;;;;;5.38;2.13;;;29.60;51.10;;;;;;5043334;28;20033;-83
2021/06/17 07:22:55;;;;;;;7.55;2.50;;;30.40;50.10;;;;;;5011720;28;20133;-81
2021/06/17 07:25:26;;;;;;;6.47;2.10;;;31.00;49.40;;;;;;5026341;28;20057;-81
2021/06/17 07:27:51;;;;;;;4.00;2.30;;;32.20;47.90;;;;;;5047936;28;20408;-81
2021/06/17 07:30:19;;;;;;;6.15;1.75;;;33.00;44.50;;;;;;5059163;28;20035;-81
2021/06/17 07:32:45;;;;;;;2.88;2.15;;;33.90;42.10;;;;;;5036325;28;20063;-87
2021/06/17 07:35:12;;;;;;;7.60;1.88;;;34.40;40.80;;;;;;5049888;28;20033;-83
2021/06/17 07:37:37;;;;;;;4.97;2.03;;;34.70;41.80;;;;;;5035726;28;20032;-81
2021/06/17 07:40:06;;;;;;;5.18;1.48;;;35.30;40.70;;;;;;5040987;28;20029;-81
2021/06/17 07:42:32;;;;;;;4.70;1.77;;;35.80;39.20;;;;;;5055145;28;20384;-79
2021/06/17 07:45:00;;;;;;;3.53;1.60;;;35.80;38.30;;;;;;5002077;28;20033;-80
2021/06/17 07:47:26;;;;;;;6.13;1.70;;;35.70;39.20;;;;;;5024398;28;20026;-80
2021/06/17 07:49:51;;;;;;;3.33;1.73;;;35.90;38.90;;;;;;5025565;28;20036;-81
2021/06/17 07:52:18;;;;;;;5.22;1.52;;;36.30;38.40;;;;;;5028244;28;20036;-80
2021/06/17 07:54:43;;;;;;;7.13;1.73;;;36.70;37.90;;;;;;5045983;28;20026;-80
2021/06/17 07:57:09;;;;;;;4.72;1.60;;;37.20;37.40;;;;;;4998955;28;20528;-80
2021/06/17 07:59:35;;;;;;;3.97;1.17;;;37.40;36.60;;;;;;5045067;28;20033;-82
2021/06/17 08:02:03;;;;;;;3.97;1.40;;;37.70;36.00;;;;;;5017155;28;20033;-81
2021/06/17 08:04:28;;;;;;;3.33;1.25;;;38.00;35.90;;;;;;5037950;28;20048;-82
2021/06/17 08:06:55;;;;;;;4.30;1.40;;;38.30;35.60;;;;;;5007156;28;20091;-80
2021/06/17 08:09:22;;;;;;;3.60;1.52;;;38.60;35.00;;;;;;5008933;28;20041;-81
2021/06/17 08:11:50;;;;;;;5.70;1.30;;;38.70;34.90;;;;;;5016077;28;20025;-81
2021/06/17 08:14:22;;;;;;;3.78;1.25;;;39.00;34.80;;;;;;5036100;28;20462;-82
2021/06/17 08:16:48;;;;;;;2.42;1.40;;;39.00;34.80;;;;;;5028787;28;20071;-80
2021/06/17 08:19:14;;;;;;;7.03;1.80;;;39.30;34.90;;;;;;5033281;28;20945;-81
2021/06/17 08:21:40;;;;;;;4.50;1.27;;;39.50;34.70;;;;;;5025826;28;20029;-83
2021/06/17 08:24:06;;;;;;;5.40;1.60;;;39.90;34.20;;;;;;5034929;28;20385;-82
2021/06/17 08:26:32;;;;;;;5.43;1.10;;;40.00;33.90;;;;;;5037528;28;20072;-82
2021/06/17 08:28:59;;;;;;;5.72;1.35;;;39.70;33.80;;;;;;5015554;28;20478;-82
2021/06/17 08:31:25;;;;;;;3.10;1.20;;;39.80;33.80;;;;;;5023521;28;20037;-82
2021/06/17 08:33:51;;;;;;;5.28;1.13;;;39.90;33.80;;;;;;5024372;28;20067;-82
2021/06/17 08:36:16;;;;;;;3.58;1.33;;;40.10;34.10;;;;;;5014644;28;20041;-82
2021/06/17 08:38:42;;;;;;;3.22;1.20;;;40.00;33.80;;;;;;5010405;28;20424;-83
2021/06/17 08:41:08;;;;;;;4.88;1.20;;;39.90;33.70;;;;;;5012680;28;20080;-82
2021/06/17 08:43:34;;;;;;;6.10;1.48;;;39.60;33.70;;;;;;5017023;28;20041;-83
2021/06/17 08:46:00;;;;;;;4.72;1.35;;;39.70;34.30;;;;;;5018355;28;20093;-84
2021/06/17 08:48:25;;;;;;;1.48;1.23;;;40.00;33.00;;;;;;5017608;28;20450;-82
2021/06/17 08:50:54;;;;;;;3.10;1.60;;;39.80;32.90;;;;;;4998950;28;20433;-82
2021/06/17 08:53:22;;;;;;;4.38;1.30;;;39.30;33.10;;;;;;5051055;28;20474;-82
2021/06/17 08:55:48;;;;;;;7.85;1.40;;;39.10;34.40;;;;;;5034986;28;20021;-82
2021/06/17 08:58:15;;;;;;;2.60;1.30;;;39.00;34.50;;;;;;5015964;28;20022;-82
2021/06/17 09:00:49;;;;;;;3.10;1.25;;;39.10;35.00;;;;;;5028792;28;20041;-83
2021/06/17 09:03:19;;;;;;;3.28;1.05;;;39.30;34.60;;;;;;5033613;28;20083;-82
2021/06/17 09:05:48;;;;;;;4.13;1.40;;;39.60;34.90;;;;;;5014798;28;20112;-83
2021/06/17 09:08:20;;;;;;;3.45;1.20;;;39.70;34.00;;;;;;5031029;28;20492;-80
2021/06/17 09:10:46;;;;;;;4.45;1.40;;;39.70;33.90;;;;;;5013633;28;20036;-82
2021/06/17 09:13:12;;;;;;;4.20;1.42;;;39.40;33.30;;;;;;4997677;28;20057;-83
2021/06/17 09:15:40;;;;;;;3.63;1.40;;;39.10;34.80;;;;;;5040098;28;20028;-84
2021/06/17 09:18:24;;;;;;;6.57;1.50;;;38.90;34.20;;;;;;5037116;28;20412;-83
2021/06/17 09:21:05;;;;;;;3.28;1.55;;;38.40;34.40;;;;;;5038230;28;20021;-82
2021/06/17 09:23:48;;;;;;;12.10;1.83;;;37.30;35.70;;;;;;5040942;28;20033;-83
2021/06/17 09:26:23;;;;;;;6.05;1.67;;;36.80;36.80;;;;;;5013355;28;20083;-80
2021/06/17 09:31:37;;;;;;;5.78;2.05;;;36.50;37.20;;;;;;5015143;28;20037;-84
2021/06/17 09:34:09;;;;;;;4.80;1.92;;;36.50;36.90;;;;;;5031579;28;20061;-83
2021/06/17 09:36:37;;;;;;;5.97;2.28;;;36.40;37.00;;;;;;5034271;28;20096;-80
2021/06/17 09:39:10;;;;;;;7.35;2.20;;;36.40;36.80;;;;;;5014891;28;20026;-85
2021/06/17 09:41:41;;;;;;;6.35;2.15;;;36.00;37.30;;;;;;5015896;28;20025;-80
2021/06/17 09:44:26;;;;;;;5.68;1.80;;;35.70;37.60;;;;;;5018651;28;20037;-83
2021/06/17 09:47:35;;;;;;;4.82;2.00;;;35.80;38.20;;;;;;5034987;28;20053;-82
2021/06/17 09:50:19;;;;;;;2.33;1.55;;;36.10;37.50;;;;;;5020749;28;20053;-82
2021/06/17 09:52:47;;;;;;;3.72;2.08;;;36.20;37.00;;;;;;5035809;28;20159;-83
2021/06/17 09:55:13;;;;;;;6.22;1.75;;;36.40;37.20;;;;;;5037051;28;20033;-82
2021/06/17 09:57:38;;;;;;;3.88;2.00;;;36.50;38.10;;;;;;5038263;28;20025;-81
2021/06/17 10:00:12;;;;;;;4.55;2.08;;;37.10;37.40;;;;;;5019999;28;20033;-85
2021/06/17 10:02:39;;;;;;;4.35;2.08;;;37.30;36.60;;;;;;5021602;28;20029;-82
2021/06/17 10:05:19;;;;;;;5.32;1.92;;;37.50;37.10;;;;;;5016942;28;20035;-84
2021/06/17 10:07:45;;;;;;;4.25;1.95;;;37.60;36.10;;;;;;5034881;28;20045;-83
2021/06/17 10:10:13;;;;;;;7.18;2.40;;;37.90;36.90;;;;;;5003084;28;20072;-81
2021/06/17 10:12:40;;;;;;;5.45;2.42;;;38.20;36.00;;;;;;5038011;28;20021;-81
2021/06/17 10:15:07;;;;;;;3.05;2.25;;;37.90;35.90;;;;;;5049340;28;20481;-85
2021/06/17 10:17:33;;;;;;;4.57;1.85;;;37.70;36.40;;;;;;5049653;28;20017;-82
2021/06/17 10:20:03;;;;;;;4.00;1.65;;;38.00;36.50;;;;;;5042510;28;20076;-82
2021/06/17 10:22:32;;;;;;;3.58;2.00;;;38.60;36.60;;;;;;5035763;28;20017;-83
2021/06/17 10:24:59;;;;;;;2.83;1.70;;;38.50;35.50;;;;;;5040195;28;20021;-83
2021/06/17 10:27:40;;;;;;;4.82;2.17;;;38.20;36.60;;;;;;5021240;28;20041;-81
2021/06/17 10:30:07;;;;;;;7.00;2.53;;;38.20;37.50;;;;;;5038424;28;20028;-81
2021/06/17 10:32:36;;;;;;;4.05;2.08;;;38.00;36.20;;;;;;5020033;28;20600;-83
2021/06/17 10:35:04;;;;;;;6.00;1.80;;;37.90;36.40;;;;;;5023828;28;20048;-85
2021/06/17 10:37:32;;;;;;;2.35;1.70;;;37.90;37.20;;;;;;5017860;28;20014;-84
2021/06/17 10:40:10;;;;;;;2.50;1.58;;;38.30;37.10;;;;;;5005651;28;20095;-83
2021/06/17 10:42:51;;;;;;;6.20;1.70;;;38.60;36.60;;;;;;5021299;28;20428;-80
2021/06/17 10:45:39;;;;;;;5.15;1.70;;;38.70;36.50;;;;;;5016943;28;20059;-82
2021/06/17 10:48:17;;;;;;;2.60;1.50;;;38.60;36.50;;;;;;5033430;28;20535;-81
2021/06/17 10:51:04;;;;;;;3.03;1.73;;;38.40;36.50;;;;;;5040832;28;20032;-80
2021/06/17 10:53:44;;;;;;;3.60;1.50;;;38.30;36.60;;;;;;5034028;28;20040;-82
2021/06/17 10:56:16;;;;;;;2.33;1.45;;;38.10;36.80;;;;;;5035213;28;20032;-82
2021/06/17 10:58:44;;;;;;;3.65;1.52;;;38.10;36.80;;;;;;5036943;28;20033;-82
2021/06/17 11:01:38;;;;;;;3.05;1.52;;;38.00;37.10;;;;;;5025181;28;20040;-83
2021/06/17 11:04:17;;;;;;;4.25;1.77;;;37.90;37.60;;;;;;5041931;28;20116;-81
2021/06/17 11:06:52;;;;;;;3.50;1.77;;;37.70;37.50;;;;;;5042776;28;20014;-81
2021/06/17 11:09:49;;;;;;;3.53;1.52;;;37.40;37.60;;;;;;5039749;28;20140;-84
2021/06/17 11:12:19;;;;;;;4.35;1.50;;;37.50;38.00;;;;;;5024485;28;20025;-82
2021/06/17 11:14:54;;;;;;;3.10;1.88;;;37.80;37.60;;;;;;5039413;28;20021;-81
2021/06/17 11:17:33;;;;;;;2.83;1.52;;;37.80;38.20;;;;;;5019099;28;20026;-85
2021/06/17 11:20:15;;;;;;;4.80;1.60;;;38.00;37.70;;;;;;5037207;28;20024;-83
2021/06/17 11:22:43;;;;;;;6.47;1.90;;;38.10;37.40;;;;;;5011743;28;20060;-84
2021/06/17 11:25:15;;;;;;;5.55;1.92;;;38.20;37.00;;;;;;5037889;28;20029;-83
2021/06/17 11:28:00;;;;;;;4.97;2.05;;;38.10;37.30;;;;;;5020788;28;20130;-78
2021/06/17 11:30:54;;;;;;;3.08;1.70;;;37.90;36.60;;;;;;5027682;28;20076;-80
2021/06/17 11:33:20;;;;;;;4.38;2.00;;;37.90;37.30;;;;;;5039606;28;20393;-84
2021/06/17 11:35:54;;;;;;;4.35;1.77;;;38.10;37.70;;;;;;5040874;28;20053;-80
2021/06/17 11:38:31;;;;;;;3.65;2.10;;;37.90;36.50;;;;;;5038267;28;20020;-86
2021/06/17 11:41:10;;;;;;;5.30;2.28;;;37.50;36.70;;;;;;5021845;28;20120;-80
2021/06/17 11:43:36;;;;;;;2.95;1.63;;;37.10;37.90;;;;;;5052124;28;20032;-81
2021/06/17 11:46:01;;;;;;;5.13;1.77;;;36.90;37.70;;;;;;5025236;28;20515;-80
2021/06/17 11:48:28;;;;;;;3.80;1.60;;;37.10;38.90;;;;;;5055347;28;20444;-80
2021/06/17 11:50:55;;;;;;;2.47;1.75;;;37.10;36.70;;;;;;5036697;28;20116;-81
2021/06/17 11:53:25;;;;;;;2.85;1.60;;;37.10;37.00;;;;;;5017441;28;20079;-86
2021/06/17 11:55:52;;;;;;;3.92;1.20;;;37.10;37.80;;;;;;5031680;28;20060;-81
2021/06/17 11:58:19;;;;;;;2.33;1.20;;;37.60;37.00;;;;;;5035831;28;20028;-82
2021/06/17 12:00:48;;;;;;;2.92;1.30;;;38.10;35.60;;;;;;5005603;28;20100;-82
2021/06/17 12:03:24;;;;;;;4.88;1.38;;;38.30;34.90;;;;;;5024122;28;20029;-82
2021/06/17 12:06:12;;;;;;;3.22;1.35;;;38.30;35.10;;;;;;5018895;28;20117;-82
2021/06/17 12:08:39;;;;;;;3.88;1.20;;;38.40;35.30;;;;;;5017834;28;20037;-83
2021/06/17 12:11:21;;;;;;;5.85;1.27;;;38.60;35.70;;;;;;5018538;28;20518;-82
2021/06/17 12:13:54;;;;;;;6.43;1.15;;;38.90;33.90;;;;;;5034513;28;20021;-81
2021/06/17 12:16:20;;;;;;;4.18;1.10;;;39.00;33.90;;;;;;5011658;28;20482;-82
2021/06/17 12:18:46;;;;;;;4.28;1.20;;;39.10;34.10;;;;;;5013311;28;20116;-84
2021/06/17 12:21:29;;;;;;;3.85;1.13;;;39.30;34.00;;;;;;5034683;28;20123;-82
2021/06/17 12:23:59;;;;;;;4.95;1.35;;;39.50;34.00;;;;;;5053526;28;20021;-82
2021/06/17 12:26:34;;;;;;;4.00;1.17;;;39.40;34.50;;;;;;5034402;28;20094;-87
2021/06/17 12:29:10;;;;;;;3.35;1.30;;;39.50;34.70;;;;;;5014532;28;20060;-83
2021/06/17 12:31:39;;;;;;;6.22;1.00;;;39.50;34.40;;;;;;4995976;28;20099;-82
2021/06/17 12:34:15;;;;;;;4.43;1.42;;;39.70;34.20;;;;;;5012828;28;20120;-83
2021/06/17 12:36:43;;;;;;;5.78;1.70;;;39.90;33.90;;;;;;4992077;28;20034;-82
2021/06/17 12:39:21;;;;;;;4.00;1.42;;;39.50;33.60;;;;;;5006351;28;20101;-81
2021/06/17 12:41:48;;;;;;;7.45;1.50;;;39.20;34.20;;;;;;4994937;28;20038;-83
2021/06/17 12:44:40;;;;;;;4.32;1.10;;;39.00;34.30;;;;;;5011988;28;20072;-81
2021/06/17 12:47:14;;;;;;;3.38;1.35;;;39.00;34.80;;;;;;4998960;28;20113;-81
2021/06/17 12:52:36;;;;;;;3.53;1.20;;;39.20;34.60;;;;;;4992868;28;20113;-81
2021/06/17 12:55:03;;;;;;;3.15;1.35;;;39.50;34.50;;;;;;4992478;28;20092;-82
2021/06/17 12:57:29;;;;;;;3.35;1.00;;;39.50;34.30;;;;;;4975988;28;20037;-84
2021/06/17 13:00:15;;;;;;;6.18;1.17;;;39.70;34.20;;;;;;4975479;28;20438;-82
2021/06/17 13:02:45;;;;;;;5.60;0.95;;;39.90;33.80;;;;;;5004468;28;20048;-81